• Join FlightAware (Why Join?)
  • Login
  • US Flag 
03:05AM EDT


 

Airport Tracker/Info


-or-


 

Live Flight TrackerFlight Track Log ✈ EJA312 ✈ 14-Oct-2013 ✈ KDLZ - KHOU

Flight Track Log - Related Links

Times and Time Zones

All times are in EDT time to prevent confusion due to time zone crossing. See the EJA312 flight status page for this flight to view local times or setup timezone preferences in your user account.

Time Position Orientation Groundspeed Altitude Reporting Facility
EDT Latitude Longitude Course Direction KTS MPH feet Rate Location/Type
10:29AM 40.3042 -83.0903 64° Northeast 230 265 4,500  Level Indianapolis Center
10:30AM 40.3050 -83.0881 64° Northeast 221 254 4,500 2,400 Level Indianapolis Center
10:32AM 40.2633 -83.2933 255° West 278 320 9,700 1,980 Climbing Indianapolis Center
10:33AM 40.2375 -83.4131 254° West 337 388 10,700 1,860 Climbing Indianapolis Center
10:34AM 40.2008 -83.5269 247° West 352 405 13,600 3,000 Climbing Indianapolis Center
10:35AM 40.1503 -83.6264 236° Southwest 331 381 16,900 2,580 Climbing Indianapolis Center
10:36AM 40.1022 -83.7242 237° Southwest 325 374 18,900 2,160 Climbing Indianapolis Center
10:37AM 40.0542 -83.8217 237° Southwest 323 372 21,400 2,340 Climbing Indianapolis Center
10:38AM 39.9947 -83.9358 236° Southwest 321 369 23,800 2,100 Climbing Indianapolis Center
10:39AM 39.9442 -84.0361 237° Southwest 330 380 25,800 1,920 Climbing Indianapolis Center
10:40AM 39.8939 -84.1342 236° Southwest 330 380 27,800 1,800 Climbing Indianapolis Center
10:41AM 39.8431 -84.2331 236° Southwest 330 380 29,600 1,680 Climbing Indianapolis Center
10:42AM 39.7911 -84.3336 236° Southwest 335 386 31,300 1,560 Climbing Indianapolis Center
10:43AM 39.7383 -84.4361 236° Southwest 340 391 32,900 1,560 Climbing Indianapolis Center
10:44AM 39.6747 -84.5592 236° Southwest 344 396 34,500 1,320 Climbing Indianapolis Center
10:45AM 39.6208 -84.6642 236° Southwest 349 402 35,700 720 Climbing Indianapolis Center
10:46AM 39.5642 -84.7725 236° Southwest 361 415 36,100 660 Climbing Indianapolis Center
10:47AM 39.5061 -84.8842 236° Southwest 374 430 37,100 900 Climbing Indianapolis Center
10:48AM 39.4508 -84.9872 235° Southwest 373 429 38,000 1,080 Climbing Indianapolis Center
10:49AM 39.3831 -85.1164 236° Southwest 364 419 39,400 1,380 Climbing Indianapolis Center
10:50AM 39.3308 -85.2164 236° Southwest 346 398 40,900 1,260 Climbing Indianapolis Center
10:51AM 39.2803 -85.3094 235° Southwest 325 374 42,000 780 Climbing Indianapolis Center
10:52AM 39.2319 -85.4014 236° Southwest 313 360 42,500 480 Climbing Indianapolis Center
10:53AM 39.1822 -85.4939 235° Southwest 314 361 43,000 240 Climbing Indianapolis Center
10:54AM 39.1319 -85.5906 236° Southwest 322 371 43,000  Level Indianapolis Center
10:55AM 39.0783 -85.6903 235° Southwest 336 387 43,000  Level Indianapolis Center
10:56AM 39.0114 -85.8144 235° Southwest 350 403 43,000  Level Indianapolis Center
10:57AM 38.9533 -85.9217 235° Southwest 361 415 43,000  Level Indianapolis Center
10:58AM 38.8944 -86.0297 235° Southwest 368 423 43,000  Level Indianapolis Center
10:59AM 38.8308 -86.1478 235° Southwest 368 423 43,000  Level Indianapolis Center
11:00AM 38.7719 -86.2536 235° Southwest 365 420 43,000  Level Indianapolis Center
11:01AM 38.7142 -86.3594 235° Southwest 363 418 43,000  Level Indianapolis Center
11:02AM 38.6567 -86.4647 235° Southwest 360 414 43,000  Level Indianapolis Center
11:04AM 38.5992 -86.5681 235° Southwest 356 410 43,000  Level Indianapolis Center
11:05AM 38.5414 -86.6722 235° Southwest 356 410 43,000  Level Indianapolis Center
11:06AM 38.4842 -86.7758 235° Southwest 357 411 43,000  Level Indianapolis Center
11:07AM 38.4272 -86.8783 235° Southwest 353 406 43,000  Level Indianapolis Center
11:08AM 38.3661 -86.9886 235° Southwest 355 409 43,000  Level Indianapolis Center
11:09AM 38.3092 -87.0894 234° Southwest 353 406 43,000  Level Indianapolis Center
11:10AM 38.2403 -87.2117 234° Southwest 355 409 43,000  Level Indianapolis Center
11:11AM 38.1914 -87.3000 235° Southwest 357 411 43,000  Level Indianapolis Center
11:12AM 38.1233 -87.4211 234° Southwest 351 404 43,000  Level Indianapolis Center
11:13AM 38.0658 -87.5217 234° Southwest 351 404 43,000  Level Indianapolis Center
11:14AM 38.0083 -87.6206 234° Southwest 348 400 43,000  Level Indianapolis Center
11:15AM 37.9519 -87.7200 234° Southwest 347 399 43,000  Level Indianapolis Center
11:16AM 37.8908 -87.8169 231° Southwest 351 404 43,000  Level Indianapolis Center
11:17AM 37.8258 -87.9092 228° Southwest 351 404 43,000  Level Indianapolis Center
11:18AM 37.7594 -88.0064 229° Southwest 347 399 43,000  Level Indianapolis Center
11:19AM 37.6953 -88.0994 229° Southwest 349 402 43,000  Level Indianapolis Center
11:20AM 37.6303 -88.1914 228° Southwest 349 402 43,000  Level Indianapolis Center
11:21AM 37.5581 -88.2967 229° Southwest 346 398 43,000  Level Indianapolis Center
11:22AM 37.4889 -88.3811 224° Southwest 347 399 43,000  Level Indianapolis Center
11:23AM 37.4083 -88.4625 219° Southwest 356 410 43,000  Level Indianapolis Center
11:24AM 37.3356 -88.5406 220° Southwest 355 409 43,000  Level Indianapolis Center
11:25AM 37.2597 -88.6194 220° Southwest 353 406 43,000  Level Indianapolis Center
11:26AM 37.1808 -88.7028 220° Southwest 353 406 43,000  Level Indianapolis Center
11:27AM 37.1044 -88.7822 220° Southwest 354 407 43,000  Level Indianapolis Center
11:28AM 37.0289 -88.8614 220° Southwest 353 406 43,000  Level Indianapolis Center
11:29AM 36.9539 -88.9397 220° Southwest 350 403 43,000  Level Indianapolis Center
11:30AM 36.8519 -89.0475 220° Southwest 353 406 43,000  Level Memphis Center
11:31AM 36.7758 -89.1267 220° Southwest 353 406 43,000  Level Memphis Center
11:32AM 36.7036 -89.2053 221° Southwest 353 406 43,000  Level Memphis Center
11:33AM 36.6272 -89.2814 219° Southwest 353 406 43,000  Level Memphis Center
11:34AM 36.5569 -89.3625 223° Southwest 353 406 43,000  Level Memphis Center
11:35AM 36.4803 -89.4381 218° Southwest 374 430 43,000  Level Memphis Center
11:36AM 36.3997 -89.5192 219° Southwest 374 430 43,000  Level Memphis Center
11:37AM 36.3208 -89.5972 219° Southwest 374 430 43,000  Level Memphis Center
11:38AM 36.2442 -89.6700 217° Southwest 369 425 43,000  Level Memphis Center
11:39AM 36.1656 -89.7478 219° Southwest 369 425 43,000  Level Memphis Center
11:40AM 36.0886 -89.8253 219° Southwest 369 425 43,000  Level Memphis Center
11:41AM 36.0117 -89.9028 219° Southwest 369 425 43,000  Level Memphis Center
11:42AM 35.9308 -89.9803 218° Southwest 369 425 43,000  Level Memphis Center
11:43AM 35.8539 -90.0600 220° Southwest 369 425 43,000  Level Memphis Center
11:44AM 35.7747 -90.1369 218° Southwest 374 430 43,000  Level Memphis Center
11:45AM 35.6978 -90.2139 219° Southwest 374 430 43,000  Level Memphis Center
11:46AM 35.6186 -90.2983 221° Southwest 361 415 43,000  Level Memphis Center
11:47AM 35.5392 -90.3750 218° Southwest 361 415 43,000  Level Memphis Center
11:48AM 35.4703 -90.4461 220° Southwest 361 415 43,000  Level Memphis Center
11:49AM 35.3889 -90.5278 219° Southwest 366 421 43,000  Level Memphis Center
11:50AM 35.3075 -90.6064 218° Southwest 377 434 43,000  Level Memphis Center
11:51AM 35.2281 -90.6850 219° Southwest 372 428 43,000  Level Memphis Center
11:52AM 35.1464 -90.7658 219° Southwest 372 428 43,000  Level Memphis Center
11:53AM 35.0669 -90.8392 217° Southwest 372 428 43,000  Level Memphis Center
11:54AM 34.9872 -90.9172 219° Southwest 372 428 43,000  Level Memphis Center
11:55AM 34.9078 -90.9978 220° Southwest 372 428 43,000  Level Memphis Center
11:56AM 34.8258 -91.0756 218° Southwest 377 434 43,000  Level Memphis Center
11:57AM 34.7356 -91.1608 218° Southwest 372 428 43,000  Level Memphis Center
11:58AM 34.6539 -91.2383 218° Southwest 378 435 43,000  Level Memphis Center
11:59AM 34.5739 -91.3181 219° Southwest 371 427 43,000  Level Memphis Center
12:00PM 34.4939 -91.3928 218° Southwest 376 433 43,000  Level Memphis Center
12:01PM 34.4119 -91.4725 219° Southwest 374 430 43,000  Level Memphis Center
12:02PM 34.3319 -91.5494 218° Southwest 374 430 43,000  Level Memphis Center
12:03PM 34.2478 -91.6261 217° Southwest 379 436 43,000  Level Memphis Center
12:05PM 34.1695 -91.6983 217° Southwest  Level FlightAware Approximate
12:05PM 34.1006 -91.7678 217° Southwest 325 374 43,000  Level Fort Worth Center
12:06PM 34.0206 -91.8458 219° Southwest 365 420 43,000  Level Fort Worth Center
12:07PM 33.9364 -91.9211 217° Southwest 377 434 43,000  Level Fort Worth Center
12:08PM 33.8519 -91.9967 217° Southwest 383 441 43,000  Level Fort Worth Center
12:09PM 33.7697 -92.0742 218° Southwest 383 441 43,000  Level Fort Worth Center
12:10PM 33.6875 -92.1514 218° Southwest 375 432 43,000  Level Fort Worth Center
12:11PM 33.6072 -92.2286 213° Southwest 380 437 43,000  Level Fort Worth Center
12:12PM 33.5930 -92.2257 213° Southwest  Level FlightAware Approximate
12:13PM 33.4403 -92.3803 217° Southwest 380 437 43,000  Level Fort Worth Center
12:14PM 33.3419 -92.4258 201° Southwest 372 428 43,000  Level Fort Worth Center
12:15PM 33.2278 -92.4469 189° South 385 443 43,000  Level Fort Worth Center
12:16PM 33.1139 -92.4683 189° South 406 467 43,000  Level Fort Worth Center
12:17PM 33.0000 -92.4894 189° South 421 484 43,000  Level Fort Worth Center
12:18PM 32.9006 -92.5072 189° South 421 484 43,000  Level Fort Worth Center
12:19PM 32.7867 -92.5283 189° South 421 484 43,000  Level Fort Worth Center
12:22PM 32.5092 -92.5800 189° South 416 479 43,000  Level Houston Center
12:23PM 32.3953 -92.6006 189° South 416 479 43,000  Level Houston Center
12:24PM 32.2581 -92.6267 189° South 416 479 43,000  Level Houston Center
12:25PM 32.1433 -92.6464 188° South 417 480 43,000  Level Houston Center
12:26PM 32.0283 -92.6664 188° South 417 480 43,000  Level Houston Center
12:27PM 31.9322 -92.7278 208° Southwest 394 453 43,000  Level Houston Center
12:28PM 31.8619 -92.8208 228° Southwest 380 437 43,000  Level Houston Center
12:29PM 31.7897 -92.9100 226° Southwest 378 435 43,000  Level Houston Center
12:30PM 31.7053 -93.0200 228° Southwest 378 435 43,000  Level Houston Center
12:31PM 31.6333 -93.1097 227° Southwest 379 436 43,000  Level Houston Center
12:32PM 31.5622 -93.2011 228° Southwest 380 437 43,000  Level Houston Center
12:33PM 31.4833 -93.3000 227° Southwest 379 436 43,000  Level Houston Center
12:34PM 31.4119 -93.3897 227° Southwest 378 435 43,000  Level Houston Center
12:35PM 31.3394 -93.4794 227° Southwest 380 437 43,000  Level Houston Center
12:36PM 31.2603 -93.5792 227° Southwest 379 436 43,000 -360 Level Houston Center
12:37PM 31.1875 -93.6708 227° Southwest 385 443 42,300 -960 Descending Houston Center
12:38PM 31.1119 -93.7656 227° Southwest 395 455 41,100 -1,500 Descending Houston Center
12:39PM 31.0358 -93.8583 226° Southwest 398 458 39,200 -2,040 Descending Houston Center
12:40PM 30.9631 -93.9481 227° Southwest 387 445 36,900 -2,640 Descending Houston Center
12:41PM 30.8742 -94.0564 226° Southwest 389 448 33,800 -2,880 Descending Houston Center
12:42PM 30.7950 -94.1544 227° Southwest 414 476 31,000 -2,880 Descending Houston Center
12:43PM 30.7108 -94.2556 226° Southwest 431 496 28,200 -2,820 Descending Houston Center
12:44PM 30.7133 -94.2536 34° Northeast 426 490 28,100 -2,640 Descending Houston Center
12:44PM 30.6658 -94.3103 226° Southwest 429 494 26,600 -2,760 Descending Houston Center
12:45PM 30.6319 -94.3508 226° Southwest 424 488 25,300 -2,940 Descending Houston Center
12:45PM 30.5811 -94.4111 226° Southwest 419 482 23,600 -2,760 Descending Houston Center
12:46PM 30.5519 -94.4486 228° Southwest 422 486 22,500 -2,880 Descending Houston Center
12:46PM 30.4986 -94.5119 226° Southwest 427 491 20,700 -3,240 Descending Houston Center
12:47PM 30.4628 -94.5689 234° Southwest 418 481 19,200 -2,880 Descending Houston Center
12:47PM 30.4311 -94.6175 233° Southwest 407 468 17,800 -2,640 Descending Houston Center
12:48PM 30.3944 -94.6758 234° Southwest 407 468 16,500 -2,520 Descending Houston Center
12:48PM 30.3689 -94.7128 231° Southwest 397 457 15,500 -2,460 Descending Houston Center
12:49PM 30.3306 -94.7761 235° Southwest 399 459 14,000 -2,340 Descending Houston Center
12:49PM 30.3047 -94.8106 229° Southwest 336 387 13,100 -1,080 Descending Houston Center
12:50PM 30.2775 -94.8578 236° Southwest 353 406 12,900 -720 Descending Houston Center
12:50PM 30.2517 -94.8947 231° Southwest 326 375 12,400 -780 Descending Houston Center
12:51PM 30.2228 -94.9406 234° Southwest 334 384 12,100 -540 Descending Houston Center
12:51PM 30.1967 -94.9792 232° Southwest 325 374 11,900 -600 Descending Houston Center
12:52PM 30.1672 -95.0244 233° Southwest 330 380 11,500 -1,140 Descending Houston Center
12:52PM 30.1394 -95.0636 231° Southwest 330 380 10,800 -1,260 Descending Houston Center
12:53PM 30.0858 -95.0919 205° Southwest 307 353 10,200 -1,020 Descending Houston Center
12:53PM 30.0553 -95.1053 201° Southwest 272 313 9,700 -900 Descending Houston Center
12:54PM 30.0125 -95.1236 200° South 283 326 9,300 -1,020 Descending Houston Center
12:54PM 29.9806 -95.1386 202° Southwest 285 328 8,700 -1,080 Descending Houston Center
12:55PM 29.9428 -95.1536 199° South 274 315 8,200 -1,200 Descending Houston Center
12:55PM 29.9197 -95.1631 200° South 237 273 7,600 -1,500 Descending Houston Center
12:56PM 29.8828 -95.1794 201° Southwest 239 275 6,700 -1,440 Descending Houston Center
12:56PM 29.8533 -95.1928 201° Southwest 224 258 6,000 -780 Descending Houston Center
12:57PM 29.8258 -95.2044 200° South 227 261 5,900  Descending Houston Center
12:57PM 29.7947 -95.2169 199° South 217 250 6,000 60 Climbing Houston Center
12:58PM 29.7578 -95.2336 201° Southwest 220 253 6,000  Level Houston Center
12:58PM 29.7361 -95.2433 201° Southwest 228 262 6,000  Level Houston Center
12:59PM 29.7011 -95.2603 203° Southwest 222 255 6,000  Level Houston Center
12:59PM 29.6894 -95.2825 239° Southwest 216 249 6,000 -720 Level Houston Center
01:00PM 29.6811 -95.3267 258° West 225 259 5,300 -1,500 Descending Houston Center
01:00PM 29.6794 -95.3558 266° West 236 272 4,500 -1,860 Descending Houston Center
01:01PM 29.6786 -95.4022 269° West 234 269 3,400 -1,860 Descending Houston Center
01:01PM 29.6939 -95.4217 312° West 252 290 2,800 -1,380 Descending Houston Center
01:02PM 29.7333 -95.4292 351° North 249 287 2,000 -720 Descending Houston Center
01:02PM 29.7364 -95.4044 82° East 190 219 2,000  Level Houston Center
01:03PM 29.7250 -95.3764 115° Southeast 203 234 2,000 -240 Level Houston Center
01:03PM 29.7111 -95.3594 133° Southeast 152 175 1,800 -840 Descending Houston Center
01:04PM 29.6919 -95.3336 130° Southeast 167 192 1,200 -720 Descending Houston Center
01:04PM 29.6850 -95.3264 138° Southeast 125 144 1,100 -600 Descending Houston Center
01:05PM 29.6689 -95.3078 135° Southeast 140 161 600 -660 Descending Houston Center
01:06PM 29.6594 -95.2983 139° Southeast 111 128 400 -420 Descending Houston Center
01:06PM 29.6461 -95.2797 129° Southeast 125 144 200 -300 Descending Houston Center